Flight Track Log - Related Links

Times and Time Zones

All times are in EDT time to prevent confusion due to time zone crossing. See the KAP550 flight status page for this flight to view local times or setup timezone preferences in your user account.

Time Position Orientation Groundspeed Altitude Reporting Facility
EDT Latitude Longitude Course Direction KTS MPH feet Rate Location/Type
Mon 10:53:57 AM 42.7483 -73.8169 298° West 106 122 900  Level Boston Center
Mon 10:54:46 AM 42.7586 -73.8428 298° West 113 130 1,800 1,200 Climbing Boston Center
Mon 10:55:47 AM 42.7939 -73.8436 359° North 127 146 3,100 1,240 Climbing Boston Center
Mon 10:56:47 AM 42.8314 -73.8500 353° North 135 155 4,300 1,181 Climbing Boston Center
Mon 10:57:54 AM 42.8708 -73.8594 350° North 131 151 5,600 1,172 Climbing Boston Center
Mon 10:58:55 AM 42.9064 -73.8631 356° North 130 150 6,800 744 Climbing Boston Center
Mon 10:59:55 AM 42.9458 -73.8753 347° North 150 173 7,100 149 Climbing Boston Center
Mon 11:00:56 AM 42.9914 -73.8819 354° North 168 193 7,100  Level Boston Center
Mon 11:01:57 AM 43.0394 -73.8889 354° North 161 185 7,100 397 Level Boston Center
Mon 11:02:57 AM 43.0767 -73.8956 353° North 130 150 7,900 505 Climbing Boston Center
Mon 11:03:44 AM 43.0975 -73.8989 353° North 129 148 8,000 224 Climbing Boston Center
Mon 11:04:44 AM 43.1350 -73.9025 356° North 129 148 8,300 350 Climbing Boston Center
Mon 11:05:44 AM 43.1703 -73.9092 352° North 129 148 8,700 350 Climbing Boston Center
Mon 11:06:44 AM 43.2119 -73.9186 351° North 129 148 9,000 150 Climbing Boston Center
Mon 11:07:44 AM 43.2494 -73.9253 353° North 144 166 9,000  Level Boston Center
Mon 11:08:56 AM 43.3097 -73.9381 351° North 154 177 9,000 182 Level Boston Center
Mon 11:09:56 AM 43.3533 -73.9478 351° North 159 183 9,400 350 Climbing Boston Center
Mon 11:10:56 AM 43.3947 -73.9603 348° North 154 177 9,700 300 Climbing Boston Center
Mon 11:11:56 AM 43.4322 -73.9639 356° North 154 177 10,000 150 Climbing Boston Center
Mon 11:12:56 AM 43.4758 -73.9850 341° North 154 177 10,000  Level Boston Center
Mon 11:13:56 AM 43.5192 -74.0119 336° Northwest 160 184 10,000  Level Boston Center
Mon 11:14:56 AM 43.5606 -74.0331 340° North 160 184 10,000  Level Boston Center
Mon 11:15:56 AM 43.6039 -74.0572 338° Northwest 166 191 10,000  Level Boston Center
Mon 11:16:56 AM 43.6472 -74.0869 334° Northwest 166 191 10,000 50 Level Boston Center
Mon 11:17:56 AM 43.6867 -74.1083 339° North 166 191 10,100 50 Climbing Boston Center
Mon 11:18:56 AM 43.7300 -74.1325 338° Northwest 166 191 10,100  Level Boston Center
Mon 11:19:56 AM 43.7714 -74.1567 337° Northwest 166 191 10,100  Level Boston Center
Mon 11:20:56 AM 43.8125 -74.1808 337° Northwest 166 191 10,100  Level Boston Center
Mon 11:21:56 AM 43.8561 -74.2050 338° Northwest 161 185 10,100  Level Boston Center
Mon 11:22:56 AM 43.8972 -74.2292 337° Northwest 161 185 10,100 -50 Level Boston Center
Mon 11:23:56 AM 43.9406 -74.2567 335° Northwest 161 185 10,000 -50 Descending Boston Center
Mon 11:24:56 AM 43.9842 -74.2781 341° North 161 185 10,000  Level Boston Center
Mon 11:25:56 AM 44.0233 -74.3025 336° Northwest 161 185 10,000  Level Boston Center
Mon 11:26:56 AM 44.0625 -74.3267 336° Northwest 161 185 10,000  Level Boston Center
Mon 11:27:56 AM 44.1039 -74.3511 337° Northwest 155 178 10,000  Level Boston Center
Mon 11:28:56 AM 44.1472 -74.3756 338° Northwest 155 178 10,000  Level Boston Center
Mon 11:29:56 AM 44.1883 -74.3972 339° North 155 178 10,000  Level Boston Center
Mon 11:30:56 AM 44.2317 -74.4247 336° Northwest 155 178 10,000  Level Boston Center
Mon 11:31:56 AM 44.2750 -74.4494 338° Northwest 155 178 10,000  Level Boston Center
Mon 11:32:56 AM 44.3100 -74.4797 328° Northwest 155 178 10,000 -200 Level Boston Center
Mon 11:33:56 AM 44.3489 -74.5186 324° Northwest 161 185 9,600 -550 Descending Boston Center
Mon 11:34:56 AM 44.3878 -74.5578 324° Northwest 171 197 8,900 -636 Descending Boston Center
Mon 11:36:08 AM 44.4369 -74.6003 328° Northwest 171 197 8,200 -636 Descending Boston Center
Mon 11:37:08 AM 44.4736 -74.6425 321° Northwest 171 197 7,500 -700 Descending Boston Center
Mon 11:38:08 AM 44.5147 -74.6761 330° Northwest 171 197 6,800 -750 Descending Boston Center
Mon 11:39:08 AM 44.5472 -74.7150 320° Northwest 171 197 6,000 -900 Descending Boston Center
Mon 11:40:08 AM 44.5903 -74.7575 325° Northwest 171 197 5,000 -500 Descending Boston Center
Mon 11:41:08 AM 44.6247 -74.7939 323° Northwest 171 197 5,000  Level Boston Center

Login

Don't have an account? Register now (free) for customized features, flight alerts, and more!